Time;durP1;ratioP1;P1;durP2;ratioP2;P2;SDS_P1;SDS_P2;PMS_P1;PMS_P2;Temp;Humidity;BMP_temperature;BMP_pressure;BME280_temperature;BME280_humidity;BME280_pressure;Samples;Min_cycle;Max_cycle;Signal;HPM_P1;HPM_P2
2021/09/18 10:23:47;;;;;;;8.82;2.30;;;;;;;;;;1044576;27;99890;-54
2021/09/18 10:24:26;;;;;;;8.38;1.83;;;;;;;;;;1046819;27;100810;-63
2021/09/18 10:25:05;;;;;;;6.13;1.77;;;;;;;;;;1045304;27;99920;-67
2021/09/18 10:25:40;;;;;;;5.00;2.22;;;;;;;;;;1043667;27;100824;-57
2021/09/18 10:26:13;;;;;;;9.05;2.25;;;;;;;;;;1044679;27;100196;-57
2021/09/18 10:27:14;;;;;;;10.80;1.88;;;;;;;;;;1043633;27;100578;-58
2021/09/18 10:28:13;;;;;;;14.93;2.60;;;;;;;;;;1049415;27;100035;-64
2021/09/18 10:28:46;;;;;;;8.52;1.98;;;;;;;;;;1047886;27;101747;-64
2021/09/18 10:29:37;;;;;;;7.72;2.40;;;;;;;;;;1049016;27;99929;-55
2021/09/18 10:30:32;;;;;;;8.45;2.17;;;;;;;;;;1047751;27;100513;-62
2021/09/18 10:31:21;;;;;;;7.13;2.08;;;;;;;;;;1049184;27;99938;-63
2021/09/18 10:32:02;;;;;;;8.55;2.05;;;;;;;;;;1047938;27;100847;-62
2021/09/18 10:32:46;;;;;;;6.72;2.30;;;;;;;;;;1048900;27;100098;-57
2021/09/18 10:33:27;;;;;;;12.63;2.30;;;;;;;;;;1047969;27;100543;-58
2021/09/18 10:33:58;;;;;;;6.95;2.05;;;;;;;;;;1048939;27;100010;-58
2021/09/18 10:34:29;;;;;;;10.45;2.40;;;;;;;;;;1047274;27;100475;-58
2021/09/18 10:35:12;;;;;;;7.28;1.90;;;;;;;;;;1049137;27;100044;-58
2021/09/18 10:36:06;;;;;;;9.32;2.28;;;;;;;;;;1043296;27;100459;-58
2021/09/18 10:36:43;;;;;;;9.35;1.67;;;;;;;;;;1044859;27;99949;-57
2021/09/18 10:37:32;;;;;;;10.48;2.40;;;;;;;;;;1043319;27;101355;-57
2021/09/18 10:38:24;;;;;;;7.25;1.98;;;;;;;;;;1049275;27;100088;-57
2021/09/18 10:39:11;;;;;;;10.98;2.58;;;;;;;;;;1048077;27;100448;-57
2021/09/18 10:40:00;;;;;;;9.25;2.30;;;;;;;;;;1043943;27;100057;-57
2021/09/18 10:40:32;;;;;;;12.50;2.80;;;;;;;;;;1042954;27;100396;-57
2021/09/18 10:41:20;;;;;;;8.18;2.15;;;;;;;;;;1044605;27;100116;-57
2021/09/18 10:41:56;;;;;;;5.53;1.67;;;;;;;;;;1047705;27;100714;-58
2021/09/18 10:42:32;;;;;;;8.50;2.17;;;;;;;;;;1048902;27;99898;-57
2021/09/18 10:43:03;;;;;;;5.72;1.88;;;;;;;;;;1047865;27;101293;-57
2021/09/18 10:43:38;;;;;;;8.65;2.25;;;;;;;;;;1044469;27;100076;-57
2021/09/18 10:44:09;;;;;;;10.07;2.33;;;;;;;;;;1043214;27;101566;-58
2021/09/18 10:44:49;;;;;;;6.55;1.80;;;;;;;;;;1044595;27;100194;-57
2021/09/18 10:45:39;;;;;;;6.63;1.95;;;;;;;;;;1045383;27;100452;-57
2021/09/18 10:46:32;;;;;;;6.00;2.47;;;;;;;;;;1049502;27;99875;-57
2021/09/18 10:47:03;;;;;;;10.25;2.20;;;;;;;;;;1047902;27;101472;-56
2021/09/18 10:47:35;;;;;;;5.93;2.33;;;;;;;;;;1044656;27;99895;-56
2021/09/18 10:48:06;;;;;;;5.10;1.65;;;;;;;;;;1043455;27;100317;-56
2021/09/18 10:48:37;;;;;;;8.15;2.17;;;;;;;;;;1044346;27;100010;-58
2021/09/18 10:49:36;;;;;;;9.18;2.22;;;;;;;;;;1030879;28;100424;-57
2021/09/18 10:50:22;;;;;;;8.55;2.20;;;;;;;;;;1039377;28;100114;-57
2021/09/18 10:51:06;;;;;;;6.88;2.20;;;;;;;;;;1067545;27;99888;-58
2021/09/18 10:51:50;;;;;;;6.72;2.22;;;;;;;;;;1037734;28;99887;-58
2021/09/18 10:52:36;;;;;;;5.80;2.08;;;;;;;;;;1054778;27;99826;-57
2021/09/18 10:53:19;;;;;;;6.97;2.08;;;;;;;;;;1037952;28;99896;-58
2021/09/18 10:54:08;;;;;;;10.00;2.38;;;;;;;;;;1035229;28;101494;-57
2021/09/18 10:55:08;;;;;;;;;;;;;;;;;;1038021;28;99912;-57
2021/09/18 10:56:03;;;;;;;;;;;;;;;;;;1038334;28;99920;-57
2021/09/18 10:56:54;;;;;;;7.43;1.90;;;;;;;;;;1042744;27;100049;-58
2021/09/18 10:57:42;;;;;;;;;;;;;;;;;;1045979;27;100236;-58
2021/09/18 10:58:25;;;;;;;;;;;;;;;;;;1038426;28;99885;-57
2021/09/18 10:59:08;;;;;;;9.65;2.78;;;;;;;;;;1054293;27;99847;-57
2021/09/18 10:59:51;;;;;;;10.95;2.30;;;;;;;;;;1049720;27;99866;-59
2021/09/18 11:00:39;;;;;;;12.30;2.20;;;;;;;;;;1054730;27;99826;-57
2021/09/18 11:01:22;;;;;;;;;;;;;;;;;;1037969;28;100226;-57
2021/09/18 11:02:30;;;;;;;8.05;2.05;;;;;;;;;;1052589;27;99846;-57
2021/09/18 11:03:32;;;;;;;4.55;1.90;;;;;;;;;;1058447;27;99962;-58
2021/09/18 11:04:35;;;;;;;;;;;;;;;;;;1038264;28;99888;-57
2021/09/18 11:05:18;;;;;;;;;;;;;;;;;;1037900;28;99916;-58
2021/09/18 11:06:00;;;;;;;11.32;2.20;;;;;;;;;;1037814;28;99929;-57
2021/09/18 11:06:44;;;;;;;;;;;;;;;;;;1038398;28;99944;-57
2021/09/18 11:07:49;;;;;;;7.25;2.08;;;;;;;;;;1028804;27;99860;-58
2021/09/18 11:08:35;;;;;;;8.02;2.53;;;;;;;;;;1046244;27;99891;-58
2021/09/18 11:09:18;;;;;;;;;;;;;;;;;;1038158;28;100055;-65
2021/09/18 11:10:02;;;;;;;10.30;2.55;;;;;;;;;;1052825;27;100236;-67
2021/09/18 11:10:33;;;;;;;6.50;2.42;;;;;;;;;;1048954;27;100576;-67
2021/09/18 11:11:23;;;;;;;14.63;2.67;;;;;;;;;;1063699;27;100038;-69
2021/09/18 11:12:13;;;;;;;7.32;2.10;;;;;;;;;;1037188;28;99911;-70
2021/09/18 11:13:08;;;;;;;;;;;;;;;;;;1038360;28;99947;-70
2021/09/18 11:13:51;;;;;;;11.80;2.72;;;;;;;;;;1037774;28;100136;-69
2021/09/18 11:14:34;;;;;;;11.10;2.58;;;;;;;;;;1041869;28;99894;-70
2021/09/18 11:15:16;;;;;;;9.88;2.90;;;;;;;;;;1037677;28;99881;-69
2021/09/18 11:16:01;;;;;;;;;;;;;;;;;;1046580;27;99902;-76
2021/09/18 11:16:44;;;;;;;;;;;;;;;;;;1038367;28;99879;-67
2021/09/18 11:17:32;;;;;;;7.15;2.15;;;;;;;;;;1052917;27;99965;-68
2021/09/18 11:18:36;;;;;;;;;;;;;;;;;;1046576;27;99435;-66
2021/09/18 11:19:20;;;;;;;12.43;2.17;;;;;;;;;;1006792;27;1570218;-66
2021/09/18 11:20:19;;;;;;;;;;;;;;;;;;1038088;28;100017;-65
2021/09/18 11:21:10;;;;;;;6.30;1.52;;;;;;;;;;1037771;28;99992;-65
2021/09/18 11:21:53;;;;;;;;;;;;;;;;;;1038238;28;99889;-64
2021/09/18 11:22:39;;;;;;;7.60;2.05;;;;;;;;;;1050411;27;99997;-69
2021/09/18 11:23:36;;;;;;;;;;;;;;;;;;1038047;28;99907;-71
2021/09/18 11:24:17;;;;;;;5.63;1.83;;;;;;;;;;1005617;27;1601979;-72
2021/09/18 11:25:18;;;;;;;;;;;;;;;;;;1046680;27;99879;-68
2021/09/18 11:26:26;;;;;;;9.80;2.70;;;;;;;;;;1063292;27;99888;-67
2021/09/18 11:27:11;;;;;;;8.75;1.90;;;;;;;;;;1063431;27;99432;-68
2021/09/18 11:27:59;;;;;;;;;;;;;;;;;;1038343;28;99927;-69
2021/09/18 11:28:41;;;;;;;;;;;;;;;;;;1038153;28;100770;-69
2021/09/18 11:29:32;;;;;;;8.10;1.75;;;;;;;;;;1037909;28;99861;-68
2021/09/18 11:30:15;;;;;;;9.98;2.00;;;;;;;;;;1036007;28;99928;-70
2021/09/18 11:30:58;;;;;;;;;;;;;;;;;;1041835;27;100629;-66
2021/09/18 11:31:57;;;;;;;7.43;2.17;;;;;;;;;;1028902;28;99819;-68
2021/09/18 11:32:41;;;;;;;6.38;2.22;;;;;;;;;;1037689;28;99942;-66
2021/09/18 11:33:24;;;;;;;7.50;2.20;;;;;;;;;;1041996;28;99920;-60
2021/09/18 11:34:06;;;;;;;;;;;;;;;;;;1036736;27;101108;-66
2021/09/18 11:34:52;;;;;;;7.32;1.92;;;;;;;;;;1048270;27;100083;-65
2021/09/18 11:35:36;;;;;;;;;;;;;;;;;;1043448;27;100223;-65
2021/09/18 11:36:19;;;;;;;16.15;1.95;;;;;;;;;;1051437;27;100338;-64
2021/09/18 11:37:26;;;;;;;16.85;2.45;;;;;;;;;;1043785;27;100093;-65
2021/09/18 11:38:09;;;;;;;9.20;2.00;;;;;;;;;;1047554;27;100075;-69
2021/09/18 11:38:52;;;;;;;;;;;;;;;;;;1034244;28;100317;-61
2021/09/18 11:40:09;;;;;;;;;;;;;;;;;;1038712;28;100262;-64
2021/09/18 11:40:51;;;;;;;;;;;;;;;;;;1039633;28;100182;-66
2021/09/18 11:41:35;;;;;;;8.55;2.30;;;;;;;;;;1049120;27;99908;-66
2021/09/18 11:42:19;;;;;;;;;;;;;;;;;;1031171;28;100206;-65
2021/09/18 11:43:02;;;;;;;;;;;;;;;;;;1034916;28;100355;-58
2021/09/18 11:43:46;;;;;;;11.05;2.13;;;;;;;;;;1052832;27;100642;-59
2021/09/18 11:44:32;;;;;;;;;;;;;;;;;;1053634;27;99861;-59
2021/09/18 11:45:20;;;;;;;;;;;;;;;;;;1046392;27;100137;-60
2021/09/18 11:46:03;;;;;;;;;;;;;;;;;;1043386;27;100116;-59
2021/09/18 11:46:46;;;;;;;9.43;2.15;;;;;;;;;;1044404;27;100095;-59
2021/09/18 11:47:31;;;;;;;;;;;;;;;;;;1038182;28;100019;-58
2021/09/18 11:48:20;;;;;;;;;;;;;;;;;;1036620;28;99888;-60
2021/09/18 11:49:03;;;;;;;;;;;;;;;;;;1037234;28;99896;-60
2021/09/18 11:49:47;;;;;;;7.55;1.98;;;;;;;;;;1046365;27;100103;-59
2021/09/18 11:50:34;;;;;;;12.32;2.38;;;;;;;;;;1029114;28;99847;-60
2021/09/18 11:51:17;;;;;;;;;;;;;;;;;;1047205;27;100124;-59
2021/09/18 11:52:02;;;;;;;8.35;2.10;;;;;;;;;;1051712;27;100058;-62
2021/09/18 11:52:45;;;;;;;;;;;;;;;;;;1035272;28;100208;-60
2021/09/18 11:53:29;;;;;;;7.03;2.05;;;;;;;;;;1054478;27;99446;-60
2021/09/18 11:54:11;;;;;;;;;;;;;;;;;;1054836;27;99833;-60
2021/09/18 11:54:55;;;;;;;;;;;;;;;;;;1046828;27;99907;-59
2021/09/18 11:55:40;;;;;;;;;;;;;;;;;;1046740;27;99518;-60
2021/09/18 11:56:22;;;;;;;6.70;2.22;;;;;;;;;;1028881;28;99952;-61
2021/09/18 11:57:12;;;;;;;;;;;;;;;;;;1055035;27;99878;-60
2021/09/18 11:58:30;;;;;;;;;;;;;;;;;;1038381;28;99496;-60
2021/09/18 11:59:14;;;;;;;;;;;;;;;;;;1046201;27;99895;-60
2021/09/18 12:00:11;;;;;;;9.07;2.25;;;;;;;;;;1037964;28;99924;-61
2021/09/18 12:00:55;;;;;;;;;;;;;;;;;;1038387;28;99920;-59
2021/09/18 12:01:46;;;;;;;11.13;2.45;;;;;;;;;;1046065;27;99435;-59
2021/09/18 12:02:31;;;;;;;;;;;;;;;;;;1038365;28;100058;-61
2021/09/18 12:03:18;;;;;;;;;;;;;;;;;;1042376;28;99912;-61
2021/09/18 12:04:00;;;;;;;;;;;;;;;;;;1046464;27;99911;-61
2021/09/18 12:04:48;;;;;;;12.80;2.33;;;;;;;;;;1029154;27;99861;-62
2021/09/18 12:05:30;;;;;;;14.48;2.13;;;;;;;;;;1046125;27;99472;-62
2021/09/18 12:06:14;;;;;;;;;;;;;;;;;;1038410;28;99909;-61
2021/09/18 12:08:39;;;;;;;;;;;;;;;;;;1059318;27;99953;-62
2021/09/18 12:09:27;;;;;;;8.80;1.80;;;;;;;;;;1033906;28;100066;-62
2021/09/18 12:10:10;;;;;;;;;;;;;;;;;;1036440;28;100231;-61
2021/09/18 12:10:54;;;;;;;;;;;;;;;;;;1046737;27;99935;-61
2021/09/18 12:11:38;;;;;;;4.85;1.67;;;;;;;;;;1054752;27;99358;-62
2021/09/18 12:12:28;;;;;;;;;;;;;;;;;;1038296;28;99912;-63
2021/09/18 12:13:11;;;;;;;9.85;2.38;;;;;;;;;;1037365;28;100106;-63
2021/09/18 12:13:55;;;;;;;;;;;;;;;;;;1046018;27;100077;-62
2021/09/18 12:14:38;;;;;;;;;;;;;;;;;;1037630;28;100066;-61
2021/09/18 12:15:31;;;;;;;6.97;2.10;;;;;;;;;;1054105;27;100005;-62
2021/09/18 12:16:17;;;;;;;;;;;;;;;;;;1042382;28;99948;-61
2021/09/18 12:17:18;;;;;;;10.30;2.60;;;;;;;;;;1046319;27;99915;-62
2021/09/18 12:18:07;;;;;;;11.15;2.63;;;;;;;;;;1042201;28;99958;-64
2021/09/18 12:18:57;;;;;;;11.73;2.33;;;;;;;;;;1037880;28;100075;-65
2021/09/18 12:19:39;;;;;;;;;;;;;;;;;;1042297;28;99866;-64
2021/09/18 12:20:23;;;;;;;7.88;1.65;;;;;;;;;;1028626;27;99861;-64
2021/09/18 12:21:07;;;;;;;;;;;;;;;;;;1054987;27;99826;-63
2021/09/18 12:21:50;;;;;;;;;;;;;;;;;;1046516;27;100143;-63
2021/09/18 12:22:39;;;;;;;9.38;2.22;;;;;;;;;;1045856;27;100049;-64
2021/09/18 12:23:22;;;;;;;10.65;2.45;;;;;;;;;;1054815;27;99861;-56
2021/09/18 12:24:08;;;;;;;7.43;1.88;;;;;;;;;;1037732;28;99891;-70
2021/09/18 12:24:51;;;;;;;7.45;2.15;;;;;;;;;;1038140;27;101043;-64
2021/09/18 12:25:35;;;;;;;6.20;1.90;;;;;;;;;;1034678;28;100155;-65
2021/09/18 12:26:19;;;;;;;10.40;2.30;;;;;;;;;;1052307;27;100069;-67
2021/09/18 12:27:21;;;;;;;8.65;1.95;;;;;;;;;;1054585;27;99948;-65
2021/09/18 12:28:05;;;;;;;7.70;1.98;;;;;;;;;;1045871;27;100122;-66
2021/09/18 12:28:49;;;;;;;8.07;2.25;;;;;;;;;;1054471;27;99841;-64
2021/09/18 12:29:33;;;;;;;;;;;;;;;;;;1049296;27;100174;-63
2021/09/18 12:30:15;;;;;;;9.50;2.05;;;;;;;;;;1037770;28;99936;-64
2021/09/18 12:31:08;;;;;;;7.07;1.83;;;;;;;;;;1006000;27;1587057;-63
2021/09/18 12:32:03;;;;;;;8.13;1.83;;;;;;;;;;1054733;27;99872;-65
2021/09/18 12:32:47;;;;;;;;;;;;;;;;;;1038277;28;99949;-64
2021/09/18 12:33:35;;;;;;;;;;;;;;;;;;1038463;28;99934;-64
2021/09/18 12:34:23;;;;;;;6.97;1.60;;;;;;;;;;1044396;27;100237;-64
2021/09/18 12:35:07;;;;;;;;;;;;;;;;;;1038250;28;100220;-64
2021/09/18 12:35:51;;;;;;;16.13;2.55;;;;;;;;;;1046271;27;99944;-63
2021/09/18 12:36:34;;;;;;;6.90;2.08;;;;;;;;;;1054735;27;99860;-61
2021/09/18 12:37:17;;;;;;;13.05;2.15;;;;;;;;;;1050344;27;100033;-62
2021/09/18 12:38:01;;;;;;;;;;;;;;;;;;1046694;27;99936;-66
2021/09/18 12:38:46;;;;;;;;;;;;;;;;;;1038302;28;99928;-61
2021/09/18 12:39:28;;;;;;;9.30;2.30;;;;;;;;;;1041931;28;99902;-63
2021/09/18 12:40:19;;;;;;;5.43;1.90;;;;;;;;;;1006762;27;1575712;-63
2021/09/18 12:41:04;;;;;;;9.57;2.30;;;;;;;;;;1046356;27;99925;-65
2021/09/18 12:41:45;;;;;;;10.23;1.73;;;;;;;;;;1006544;27;1579881;-65
2021/09/18 12:42:29;;;;;;;6.55;2.10;;;;;;;;;;1041875;28;99937;-61
2021/09/18 12:43:18;;;;;;;;;;;;;;;;;;1037892;28;100024;-66
2021/09/18 12:44:06;;;;;;;13.40;2.30;;;;;;;;;;1050486;27;99926;-67
2021/09/18 12:44:49;;;;;;;12.60;2.35;;;;;;;;;;1037766;28;100134;-66
2021/09/18 12:45:34;;;;;;;;;;;;;;;;;;1038045;28;100189;-65
2021/09/18 12:46:16;;;;;;;;;;;;;;;;;;1038182;28;99971;-65
2021/09/18 12:47:00;;;;;;;8.02;1.67;;;;;;;;;;1028922;27;99877;-66
2021/09/18 12:47:43;;;;;;;;;;;;;;;;;;1055143;27;100011;-64
2021/09/18 12:48:27;;;;;;;12.75;2.20;;;;;;;;;;1037672;28;99972;-65
2021/09/18 12:49:11;;;;;;;34.35;2.47;;;;;;;;;;1029122;27;99840;-69
2021/09/18 12:49:54;;;;;;;;;;;;;;;;;;1038272;28;100095;-65
2021/09/18 12:51:05;;;;;;;11.48;2.05;;;;;;;;;;1050409;27;99867;-67
2021/09/18 12:51:59;;;;;;;10.90;2.40;;;;;;;;;;1037644;28;100161;-69
2021/09/18 12:52:42;;;;;;;;;;;;;;;;;;1042480;28;99899;-69
2021/09/18 12:53:30;;;;;;;11.10;2.50;;;;;;;;;;1028930;27;99851;-70
2021/09/18 12:54:17;;;;;;;;;;;;;;;;;;1037372;28;99885;-70
2021/09/18 12:55:01;;;;;;;6.20;1.67;;;;;;;;;;1041365;27;101088;-71
2021/09/18 12:56:02;;;;;;;;;;;;;;;;;;1037898;28;99924;-69
2021/09/18 12:56:48;;;;;;;8.65;2.20;;;;;;;;;;1046190;27;99869;-69
2021/09/18 12:57:33;;;;;;;11.32;2.67;;;;;;;;;;1054766;27;99882;-69
2021/09/18 12:58:28;;;;;;;16.83;2.10;;;;;;;;;;1046296;27;99991;-70
2021/09/18 12:59:10;;;;;;;;;;;;;;;;;;1038275;28;99893;-70
2021/09/18 13:00:05;;;;;;;9.02;1.70;;;;;;;;;;1045847;27;99908;-70
2021/09/18 13:01:02;;;;;;;10.38;2.22;;;;;;;;;;1037830;28;100043;-67
2021/09/18 13:01:51;;;;;;;;;;;;;;;;;;1038274;28;99920;-57
2021/09/18 13:02:33;;;;;;;7.63;2.13;;;;;;;;;;1037989;28;99958;-48
2021/09/18 13:03:15;;;;;;;11.60;2.07;;;;;;;;;;1005821;27;1601381;-50
2021/09/18 13:04:03;;;;;;;;;;;;;;;;;;1042327;28;99985;-51
2021/09/18 13:04:45;;;;;;;;;;;;;;;;;;1042489;28;99877;-48
2021/09/18 13:05:29;;;;;;;5.63;1.80;;;;;;;;;;1054783;27;99839;-47
2021/09/18 13:06:15;;;;;;;10.95;1.95;;;;;;;;;;1054613;27;99860;-47
2021/09/18 13:06:59;;;;;;;;;;;;;;;;;;1042335;28;99922;-49
2021/09/18 13:07:54;;;;;;;18.52;2.85;;;;;;;;;;1046177;27;100334;-49
2021/09/18 13:08:44;;;;;;;9.07;2.45;;;;;;;;;;1037949;28;99907;-49
2021/09/18 13:09:26;;;;;;;;;;;;;;;;;;1036317;28;101296;-52
2021/09/18 13:10:11;;;;;;;;;;;;;;;;;;1041985;27;100247;-49
2021/09/18 13:10:52;;;;;;;12.87;2.83;;;;;;;;;;1006461;27;1580085;-48
2021/09/18 13:11:50;;;;;;;16.77;2.50;;;;;;;;;;1006572;27;1574916;-49
2021/09/18 13:12:38;;;;;;;;;;;;;;;;;;1038321;28;99902;-48
2021/09/18 13:13:33;;;;;;;;;;;;;;;;;;1046759;27;99915;-48
2021/09/18 13:14:17;;;;;;;;;;;;;;;;;;1046808;27;99885;-48
2021/09/18 13:14:59;;;;;;;8.10;2.40;;;;;;;;;;1054789;27;99871;-51
2021/09/18 13:15:42;;;;;;;;;;;;;;;;;;1038469;28;99868;-48
2021/09/18 13:16:25;;;;;;;15.30;2.65;;;;;;;;;;1038093;28;99957;-48
2021/09/18 13:17:17;;;;;;;6.80;2.03;;;;;;;;;;1037790;28;100034;-49
2021/09/18 13:17:59;;;;;;;;;;;;;;;;;;1038454;28;99902;-53
2021/09/18 13:18:43;;;;;;;14.50;2.35;;;;;;;;;;1050307;27;99910;-48
2021/09/18 13:19:29;;;;;;;8.15;1.92;;;;;;;;;;1037946;28;99954;-50
2021/09/18 13:20:15;;;;;;;;;;;;;;;;;;1046745;27;100736;-48
2021/09/18 13:20:59;;;;;;;;;;;;;;;;;;1042051;28;100303;-50
2021/09/18 13:21:42;;;;;;;8.77;1.90;;;;;;;;;;1038034;28;99978;-48
2021/09/18 13:22:28;;;;;;;;;;;;;;;;;;1038401;28;99910;-48
2021/09/18 13:23:11;;;;;;;;;;;;;;;;;;1038326;28;99938;-47
2021/09/18 13:23:55;;;;;;;6.00;2.33;;;;;;;;;;1048534;27;100206;-47
2021/09/18 13:24:38;;;;;;;;;;;;;;;;;;1053327;27;100111;-51
2021/09/18 13:25:18;;;;;;;14.13;2.70;;;;;;;;;;1003693;27;1584788;-49
2021/09/18 13:26:02;;;;;;;;;;;;;;;;;;1046468;27;99904;-49
2021/09/18 13:26:45;;;;;;;9.13;2.20;;;;;;;;;;1028979;28;99911;-49
2021/09/18 13:27:29;;;;;;;9.77;2.90;;;;;;;;;;1054582;27;99871;-48
2021/09/18 13:28:12;;;;;;;;;;;;;;;;;;1038295;28;99882;-47
2021/09/18 13:28:55;;;;;;;13.43;3.13;;;;;;;;;;1023343;27;2264278;-45
2021/09/18 13:29:39;;;;;;;;;;;;;;;;;;1038297;28;99960;-48
2021/09/18 13:30:22;;;;;;;10.05;3.25;;;;;;;;;;1050381;27;99898;-47
2021/09/18 13:31:06;;;;;;;;;;;;;;;;;;1046664;27;99982;-47
2021/09/18 13:31:49;;;;;;;13.98;3.17;;;;;;;;;;1042229;28;99956;-47
2021/09/18 13:32:32;;;;;;;13.25;3.35;;;;;;;;;;1037888;28;100049;-47
2021/09/18 13:33:14;;;;;;;;;;;;;;;;;;1046693;27;99944;-49
2021/09/18 13:33:58;;;;;;;10.43;2.75;;;;;;;;;;1028945;28;99875;-47
2021/09/18 13:34:42;;;;;;;;;;;;;;;;;;1055261;27;99879;-50
2021/09/18 13:35:24;;;;;;;10.85;2.85;;;;;;;;;;1037593;28;99930;-47
2021/09/18 13:36:07;;;;;;;;;;;;;;;;;;1037998;28;99433;-49
2021/09/18 13:36:51;;;;;;;8.75;2.50;;;;;;;;;;1052329;27;100099;-49
2021/09/18 13:37:33;;;;;;;10.20;2.20;;;;;;;;;;1054364;27;100653;-47
2021/09/18 13:38:16;;;;;;;10.35;2.30;;;;;;;;;;1054925;27;99875;-48
2021/09/18 13:38:59;;;;;;;8.80;2.30;;;;;;;;;;1054727;27;99867;-49
2021/09/18 13:39:42;;;;;;;6.90;2.40;;;;;;;;;;1028685;28;100120;-48
2021/09/18 13:40:25;;;;;;;8.48;2.58;;;;;;;;;;1054109;27;99856;-47
2021/09/18 13:41:08;;;;;;;10.07;2.35;;;;;;;;;;1044247;27;100260;-47
2021/09/18 13:41:54;;;;;;;7.57;2.08;;;;;;;;;;1049877;27;99915;-48
2021/09/18 13:42:35;;;;;;;;;;;;;;;;;;1036554;28;99945;-47
2021/09/18 13:43:19;;;;;;;9.18;2.03;;;;;;;;;;1042474;27;100099;-47
2021/09/18 13:44:00;;;;;;;12.45;2.60;;;;;;;;;;978647;27;2284541;-47
2021/09/18 13:44:43;;;;;;;;;;;;;;;;;;1038292;28;100145;-48
2021/09/18 13:45:26;;;;;;;5.88;2.05;;;;;;;;;;1054773;27;99868;-51
2021/09/18 13:46:10;;;;;;;9.85;2.47;;;;;;;;;;1054552;27;99873;-48
2021/09/18 13:46:53;;;;;;;8.20;2.03;;;;;;;;;;1036731;28;100377;-47
2021/09/18 15:05:57;;;;;;;3.67;1.08;;;;;;;;;;1037900;28;99865;-57
2021/09/18 15:06:42;;;;;;;5.28;1.05;;;;;;;;;;1037787;28;99893;-62
2021/09/18 15:07:27;;;;;;;;;;;;;;;;;;1037858;28;100184;-58
2021/09/18 15:08:10;;;;;;;8.43;1.67;;;;;;;;;;1063380;27;99869;-67
